Time;durP1;ratioP1;P1;durP2;ratioP2;P2;SDS_P1;SDS_P2;PMS_P1;PMS_P2;Temp;Humidity;BMP_temperature;BMP_pressure;BME280_temperature;BME280_humidity;BME280_pressure;Samples;Min_cycle;Max_cycle;Signal;HPM_P1;HPM_P2
2022/05/20 00:01:59;;;;;;;47.67;34.30;;;;;;;11.01;100.00;102159.44;5091181;28;20032;-81
2022/05/20 00:04:25;;;;;;;54.90;36.08;;;;;;;10.88;100.00;102134.16;5092823;28;20028;-81
2022/05/20 00:06:51;;;;;;;49.65;36.17;;;;;;;10.37;100.00;102057.16;5091214;28;20396;-81
2022/05/20 00:09:16;;;;;;;52.78;36.35;;;;;;;11.23;100.00;102200.75;5092608;28;20032;-82
2022/05/20 00:11:54;;;;;;;57.60;38.65;;;;;;;9.72;100.00;101954.88;5092888;28;20028;-81
2022/05/20 00:14:20;;;;;;;56.50;39.60;;;;;;;11.20;100.00;102202.53;5092798;28;20020;-81
2022/05/20 00:16:55;;;;;;;68.90;45.00;;;;;;;11.15;100.00;102188.97;5092474;28;20036;-81
2022/05/20 00:19:22;;;;;;;59.33;40.65;;;;;;;10.67;100.00;102116.16;5092882;28;20488;-82
2022/05/20 00:21:48;;;;;;;60.13;40.97;;;;;;;10.63;100.00;102128.38;5092819;28;20541;-82
2022/05/20 00:24:13;;;;;;;66.20;44.08;;;;;;;11.11;100.00;102194.34;5092701;28;20229;-82
2022/05/20 00:26:41;;;;;;;64.22;41.40;;;;;;;10.81;100.00;102161.16;5092557;28;20028;-82
2022/05/20 00:29:06;;;;;;;65.43;41.30;;;;;;;11.03;100.00;102199.03;5092477;28;20016;-82
2022/05/20 00:31:32;;;;;;;64.45;42.95;;;;;;;11.03;100.00;102191.25;5092303;28;20028;-82
2022/05/20 00:33:57;;;;;;;62.10;42.53;;;;;;;10.91;100.00;102174.50;5091505;28;20028;-82
2022/05/20 00:36:22;;;;;;;56.70;39.00;;;;;;;10.41;100.00;102089.66;5091423;28;20051;-82
2022/05/20 00:38:49;;;;;;;75.97;41.22;;;;;;;11.03;100.00;102191.25;5092293;28;20020;-81
2022/05/20 00:41:14;;;;;;;89.95;43.08;;;;;;;10.80;100.00;102150.88;5092474;28;20024;-81
2022/05/20 00:43:43;;;;;;;76.13;41.00;;;;;;;11.01;100.00;102190.47;5092125;28;20081;-82
2022/05/20 00:46:12;;;;;;;55.58;37.35;;;;;;;10.94;100.00;102195.09;5092478;28;20035;-82
2022/05/20 00:48:38;;;;;;;55.40;37.42;;;;;;;10.95;100.00;102203.66;5091267;28;20425;-82
2022/05/20 00:51:15;;;;;;;49.88;32.53;;;;;;;10.77;100.00;102172.53;5092499;28;20054;-81
2022/05/20 00:53:52;;;;;;;74.70;36.80;;;;;;;10.93;100.00;102192.56;5092442;28;20021;-82
2022/05/20 00:56:24;;;;;;;66.97;35.00;;;;;;;10.58;100.00;102141.47;5091826;28;20031;-82
2022/05/20 00:58:51;;;;;;;56.28;34.25;;;;;;;10.47;100.00;102125.56;5092481;28;20081;-82
2022/05/20 01:01:18;;;;;;;41.58;30.45;;;;;;;10.67;100.00;102160.91;5092307;28;20490;-82
2022/05/20 01:03:45;;;;;;;45.38;31.75;;;;;;;10.86;100.00;102184.22;5092483;28;20020;-83
2022/05/20 01:06:10;;;;;;;42.65;29.83;;;;;;;10.65;100.00;102157.56;5092368;28;20050;-81
2022/05/20 01:08:40;;;;;;;36.20;27.23;;;;;;;10.79;100.00;102183.63;5091947;28;20051;-81
2022/05/20 01:11:06;;;;;;;38.42;26.92;;;;;;;10.00;100.00;102047.47;5092216;28;20039;-82
2022/05/20 01:13:33;;;;;;;32.95;25.45;;;;;;;9.87;100.00;102036.00;5090573;28;20396;-83
2022/05/20 01:16:15;;;;;;;32.75;25.17;;;;;;;10.09;100.00;102075.50;5092092;28;20035;-82
2022/05/20 01:19:01;;;;;;;32.15;23.88;;;;;;;10.23;100.00;102111.13;5092240;28;20024;-82
2022/05/20 01:21:27;;;;;;;29.95;25.02;;;;;;;10.58;100.00;102177.63;5091580;28;20040;-82
2022/05/20 01:23:59;;;;;;;34.25;26.45;;;;;;;10.39;100.00;102153.47;5093356;28;20028;-82
2022/05/20 01:26:25;;;;;;;32.15;24.45;;;;;;;10.05;100.00;102107.50;5094471;28;20039;-81
2022/05/20 01:28:50;;;;;;;30.92;24.65;;;;;;;10.28;100.00;102143.56;5094511;28;20020;-81
2022/05/20 01:31:16;;;;;;;39.33;27.48;;;;;;;10.32;100.00;102167.50;5094451;28;20115;-81
2022/05/20 01:33:44;;;;;;;38.97;27.92;;;;;;;10.23;100.00;102148.09;5097497;28;20115;-82
2022/05/20 01:36:16;;;;;;;44.42;31.58;;;;;;;10.16;100.00;102127.72;5115844;28;20114;-81
2022/05/20 01:38:42;;;;;;;39.63;30.80;;;;;;;10.52;100.00;102175.31;5116145;28;20027;-82
2022/05/20 01:41:18;;;;;;;46.28;34.08;;;;;;;10.60;100.00;102175.81;5115692;28;20035;-82
2022/05/20 01:44:09;;;;;;;72.35;35.60;;;;;;;10.62;100.00;102176.63;5097848;28;20468;-82
2022/05/20 01:46:40;;;;;;;82.72;39.72;;;;;;;10.31;100.00;102109.88;5115700;28;20028;-82
2022/05/20 01:49:22;;;;;;;96.55;41.15;;;;;;;10.72;100.00;102168.47;5115825;28;20136;-82
2022/05/20 01:51:55;;;;;;;104.03;39.83;;;;;;;10.23;100.00;102088.72;5115732;27;20057;-82
2022/05/20 01:54:27;;;;;;;99.63;40.92;;;;;;;10.58;100.00;102138.03;5115408;28;20054;-82
2022/05/20 01:57:08;;;;;;;80.47;39.03;;;;;;;10.73;100.00;102158.06;5115617;28;20027;-82
2022/05/20 01:59:43;;;;;;;78.93;43.63;;;;;;;10.08;100.00;102045.41;5097008;28;20081;-82
2022/05/20 02:02:24;;;;;;;85.43;44.03;;;;;;;10.22;100.00;102075.84;5115545;28;20031;-82
2022/05/20 02:04:56;;;;;;;94.45;44.38;;;;;;;10.78;100.00;102161.28;5115192;28;20069;-83
2022/05/20 02:07:29;;;;;;;97.65;44.97;;;;;;;10.77;100.00;102156.19;5115318;28;20031;-83
2022/05/20 02:10:26;;;;;;;97.80;44.72;;;;;;;10.06;100.00;102042.06;5115133;28;20024;-82
2022/05/20 02:12:57;;;;;;;95.63;44.55;;;;;;;10.61;100.00;102133.56;5115342;28;20551;-82
2022/05/20 02:15:28;;;;;;;84.83;44.10;;;;;;;10.79;100.00;102157.78;5115315;28;20059;-82
2022/05/20 02:18:00;;;;;;;122.68;47.22;;;;;;;10.32;100.00;102077.13;5115089;28;20110;-82
2022/05/20 02:20:42;;;;;;;89.68;43.95;;;;;;;10.84;100.00;102152.44;5115051;28;20416;-82
2022/05/20 02:23:22;;;;;;;92.05;43.88;;;;;;;9.82;100.00;101991.47;5114947;28;20047;-82
2022/05/20 02:25:57;;;;;;;128.60;48.10;;;;;;;10.49;100.00;102091.94;5114883;28;20019;-82
2022/05/20 02:28:44;;;;;;;83.07;44.97;;;;;;;10.82;100.00;102149.94;5096471;28;20046;-81
2022/05/20 02:31:46;;;;;;;105.03;46.80;;;;;;;10.07;100.00;102023.94;5096879;28;20027;-82
2022/05/20 02:34:23;;;;;;;96.00;47.08;;;;;;;10.47;100.00;102102.34;5012631;28;20073;-82
2022/05/20 02:36:50;;;;;;;103.65;50.20;;;;;;;9.84;100.00;101995.69;5012161;28;20072;-82
2022/05/20 02:39:27;;;;;;;129.43;49.85;;;;;;;10.21;100.00;102061.22;5012250;28;20137;-82
2022/05/20 02:41:53;;;;;;;151.10;48.97;;;;;;;9.82;100.00;102012.94;5012278;28;20030;-82
2022/05/20 02:44:19;;;;;;;117.78;46.67;;;;;;;9.55;100.00;101965.06;5012153;28;20029;-82
2022/05/20 02:46:48;;;;;;;111.03;48.00;;;;;;;9.52;100.00;101947.97;5012460;28;20040;-82
2022/05/20 02:49:13;;;;;;;106.63;47.53;;;;;;;10.05;100.00;102043.81;5012106;28;20036;-82
2022/05/20 02:51:38;;;;;;;106.28;47.67;;;;;;;10.44;100.00;102106.81;5011867;28;20113;-82
2022/05/20 02:54:05;;;;;;;116.18;46.45;;;;;;;10.70;100.00;102139.25;4995467;28;20026;-81
2022/05/20 02:56:33;;;;;;;107.90;48.33;;;;;;;10.71;100.00;102154.69;5012077;28;20042;-82
2022/05/20 03:04:28;;;;;;;80.50;44.95;;;;;;;10.51;100.00;102113.38;5011852;28;20033;-85
2022/05/20 03:06:54;;;;;;;97.00;45.55;;;;;;;10.67;100.00;102137.66;4995351;28;20034;-85
2022/05/20 03:09:24;;;;;;;92.32;45.92;;;;;;;10.66;100.00;102141.16;5011757;28;20502;-85
2022/05/20 03:11:50;;;;;;;85.53;45.17;;;;;;;10.26;100.00;102075.66;5095302;28;20032;-85
2022/05/20 03:14:19;;;;;;;85.93;44.85;;;;;;;9.65;100.00;101972.38;5096017;28;20028;-85
2022/05/20 03:16:45;;;;;;;98.15;47.03;;;;;;;10.45;100.00;102098.97;5113968;28;20030;-85
2022/05/20 03:19:11;;;;;;;108.53;45.88;;;;;;;10.68;100.00;102134.16;5113825;28;20460;-84
2022/05/20 03:21:39;;;;;;;102.32;45.67;;;;;;;10.32;100.00;102057.34;5113831;28;20031;-85
2022/05/20 03:24:23;;;;;;;90.55;45.15;;;;;;;10.07;100.00;102029.09;5114023;28;20076;-85
2022/05/20 03:26:51;;;;;;;111.80;45.13;;;;;;;10.46;100.00;102082.59;5113707;28;20507;-82
2022/05/20 03:29:16;;;;;;;107.43;45.58;;;;;;;10.76;100.00;102126.94;5113306;28;20047;-84
2022/05/20 03:31:42;;;;;;;111.70;47.35;;;;;;;10.19;100.00;102038.06;5113312;28;20035;-84
2022/05/20 03:34:18;;;;;;;96.65;45.65;;;;;;;10.15;100.00;102026.22;5113616;28;20040;-85
2022/05/20 03:36:45;;;;;;;159.13;47.22;;;;;;;10.76;100.00;102128.69;5113740;28;20039;-85
2022/05/20 03:39:14;;;;;;;130.98;45.67;;;;;;;10.77;100.00;102135.53;5113584;28;20081;-84
2022/05/20 03:41:40;;;;;;;106.88;44.80;;;;;;;10.38;100.00;102065.72;5113415;28;20095;-85
2022/05/20 03:44:20;;;;;;;122.00;43.88;;;;;;;10.26;100.00;102057.59;5095166;28;20050;-85
2022/05/20 03:46:58;;;;;;;166.18;45.47;;;;;;;10.05;100.00;102020.59;5112927;28;20073;-85
2022/05/20 03:49:26;;;;;;;112.22;42.90;;;;;;;10.76;100.00;102137.25;5113516;28;20472;-85
2022/05/20 03:51:53;;;;;;;110.75;44.28;;;;;;;10.40;100.00;102071.66;5094460;28;20031;-85
2022/05/20 03:54:21;;;;;;;120.47;43.90;;;;;;;10.55;100.00;102102.03;5095115;28;20020;-85
2022/05/20 03:56:54;;;;;;;146.85;46.40;;;;;;;10.78;100.00;102138.03;5112964;28;20024;-85
2022/05/20 03:59:21;;;;;;;120.20;42.65;;;;;;;10.20;100.00;102032.00;5095028;28;20024;-85
2022/05/20 04:02:05;;;;;;;117.50;45.28;;;;;;;10.53;100.00;102083.16;5113327;28;20024;-85
2022/05/20 04:07:27;;;;;;;98.40;45.35;;;;;;;10.48;100.00;102034.28;5112683;28;20127;-83
2022/05/20 04:09:53;;;;;;;109.93;46.55;;;;;;;10.35;100.00;101997.00;5113086;28;20156;-84
2022/05/20 04:12:29;;;;;;;103.85;46.03;;;;;;;10.70;100.00;102046.25;5113143;28;20032;-84
2022/05/20 04:14:56;;;;;;;95.32;46.13;;;;;;;10.91;100.00;102084.06;5094656;28;20023;-84
2022/05/20 04:17:21;;;;;;;121.68;45.78;;;;;;;10.69;100.00;102044.56;5094923;28;20391;-84
2022/05/20 04:19:47;;;;;;;93.95;46.05;;;;;;;11.03;100.00;102098.22;5094874;28;20027;-83
2022/05/20 04:22:56;;;;;;;82.93;44.67;;;;;;;10.61;100.00;102021.66;5094576;28;20027;-85
2022/05/20 04:25:22;;;;;;;97.20;47.60;;;;;;;10.97;100.00;102070.88;5010477;28;20546;-85
2022/05/20 04:27:50;;;;;;;93.70;46.88;;;;;;;11.12;100.00;102090.88;5010699;28;20034;-85
2022/05/20 04:30:27;;;;;;;98.53;50.35;;;;;;;10.73;100.00;102004.81;5010563;28;20037;-85
2022/05/20 04:32:52;;;;;;;83.18;50.15;;;;;;;9.92;100.00;101856.84;4985450;28;20516;-85
2022/05/20 04:35:18;;;;;;;122.45;53.45;;;;;;;11.18;100.00;102061.31;4981907;23;20038;-85
2022/05/20 04:37:43;;;;;;;120.43;52.38;;;;;;;11.01;100.00;102033.66;5051405;28;20040;-85
2022/05/20 04:40:12;;;;;;;130.82;52.75;;;;;;;10.36;100.00;101916.03;5050858;28;20036;-84
2022/05/20 04:48:36;;;;;;;104.45;54.42;;;;;;;11.17;100.00;101976.91;5052228;28;20148;-84
2022/05/20 04:51:02;;;;;;;107.22;52.33;;;;;;;11.22;100.00;101976.69;5052332;28;20025;-84
2022/05/20 04:56:20;;;;;;;106.53;50.10;;;;;;;11.15;100.00;101942.53;5052264;28;20072;-85
2022/05/20 04:58:46;;;;;;;91.35;51.85;;;;;;;11.69;100.00;102014.03;5053262;28;20025;-85
2022/05/20 05:01:15;;;;;;;104.00;53.53;;;;;;;12.19;100.00;102077.19;5055992;28;20020;-86
2022/05/20 05:03:40;;;;;;;94.43;50.53;;;;;;;11.61;100.00;101966.19;5055918;28;20503;-86
2022/05/20 05:06:05;;;;;;;92.55;50.60;;;;;;;12.51;100.00;102096.34;5055763;28;20053;-85
2022/05/20 05:08:31;;;;;;;104.80;49.72;;;;;;;12.75;100.00;102126.16;5055948;28;20377;-87
2022/05/20 05:10:56;;;;;;;103.05;48.75;;;;;;;12.53;99.24;102066.00;5055532;28;20037;-86
2022/05/20 05:13:21;;;;;;;74.20;46.78;;;;;;;12.50;98.36;102016.94;5055273;28;20103;-85
2022/05/20 05:15:47;;;;;;;76.90;47.65;;;;;;;13.10;97.94;102090.63;5055905;28;20025;-86
2022/05/20 05:18:12;;;;;;;91.93;47.30;;;;;;;13.66;96.01;102117.00;5055648;28;20082;-85
2022/05/20 05:20:53;;;;;;;79.88;48.13;;;;;;;12.89;94.17;101915.47;5055586;28;20044;-85
2022/05/20 05:23:23;;;;;;;67.33;45.67;;;;;;;13.46;92.78;101952.03;5055769;28;20048;-85
2022/05/20 05:25:49;;;;;;;64.05;45.17;;;;;;;14.35;91.98;102067.16;5055537;28;20104;-84
2022/05/20 05:28:14;;;;;;;64.93;46.55;;;;;;;14.58;91.74;102113.47;5055318;28;20469;-85
2022/05/20 05:30:44;;;;;;;72.32;50.38;;;;;;;14.13;92.07;102020.00;5055482;28;20039;-85
2022/05/20 05:33:09;;;;;;;70.45;47.88;;;;;;;14.75;90.97;102018.88;5055378;28;20041;-86
2022/05/20 05:35:34;;;;;;;69.15;47.17;;;;;;;15.47;87.81;102054.19;5055142;28;20047;-86
2022/05/20 05:38:02;;;;;;;64.72;45.42;;;;;;;15.91;85.48;102028.81;5055461;28;20036;-86
2022/05/20 05:40:30;;;;;;;67.10;45.60;;;;;;;16.34;83.72;102078.91;5037280;28;20071;-86
2022/05/20 05:42:56;;;;;;;60.63;42.63;;;;;;;15.96;83.63;102024.16;5037239;28;20029;-85
2022/05/20 05:45:34;;;;;;;62.42;44.30;;;;;;;16.17;83.54;102003.63;5055290;28;20130;-85
2022/05/20 05:48:02;;;;;;;64.43;43.90;;;;;;;17.45;79.33;102088.59;5055039;28;20048;-85
2022/05/20 05:50:47;;;;;;;64.13;42.47;;;;;;;16.67;79.35;101970.63;5055397;28;20021;-85
2022/05/20 05:53:24;;;;;;;66.32;44.00;;;;;;;16.58;79.67;101883.44;5054862;28;20057;-87
2022/05/20 05:56:38;;;;;;;59.33;40.97;;;;;;;18.17;78.67;102065.00;5053946;28;20432;-83
2022/05/20 05:59:04;;;;;;;55.80;37.67;;;;;;;17.54;74.20;101933.00;4974166;28;20432;-86
2022/05/20 06:02:12;;;;;;;57.08;36.25;;;;;;;18.79;76.39;102072.50;4974164;28;20115;-86
2022/05/20 06:04:37;;;;;;;50.60;34.58;;;;;;;19.16;68.44;101921.97;4973975;28;20122;-83
2022/05/20 06:07:05;;;;;;;48.33;31.20;;;;;;;19.99;65.56;101920.34;4973787;28;20181;-86
2022/05/20 06:12:25;;;;;;;36.35;25.33;;;;;;;19.96;60.51;101873.38;5046593;26;20501;-84
2022/05/20 06:15:07;;;;;;;43.85;26.20;;;;;;;21.69;60.93;101903.41;5074612;28;20085;-85
2022/05/20 06:17:33;;;;;;;37.30;23.73;;;;;;;22.85;53.39;101916.03;5074241;28;20396;-84
2022/05/20 06:20:14;;;;;;;31.70;19.70;;;;;;;24.11;48.83;102066.03;5074392;28;20103;-85
2022/05/20 06:22:42;;;;;;;28.70;20.75;;;;;;;23.41;49.27;101909.56;5074534;28;20028;-86
2022/05/20 06:25:09;;;;;;;36.50;22.50;;;;;;;25.05;48.17;102068.66;5074467;28;20024;-84
2022/05/20 06:27:35;;;;;;;30.60;20.48;;;;;;;25.68;45.39;102060.16;5074221;28;20029;-83
2022/05/20 06:30:02;;;;;;;31.92;20.17;;;;;;;25.80;45.57;102031.56;5074337;28;20031;-82
2022/05/20 06:32:27;;;;;;;28.15;19.17;;;;;;;26.13;42.39;102056.13;5056000;28;20024;-83
2022/05/20 06:40:21;;;;;;;27.58;16.90;;;;;;;26.38;41.18;102040.22;5074429;28;20031;-82
2022/05/20 06:42:47;;;;;;;24.05;16.60;;;;;;;26.89;40.85;102041.47;5074005;28;20103;-79
2022/05/20 06:45:15;;;;;;;25.42;17.35;;;;;;;27.11;41.04;102034.56;5074037;28;20412;-82
2022/05/20 06:47:40;;;;;;;24.65;16.27;;;;;;;26.69;39.27;102001.34;5074081;28;20407;-83
2022/05/20 06:50:13;;;;;;;24.13;16.85;;;;;;;26.29;40.29;102040.22;5073944;28;20483;-85
2022/05/20 06:52:38;;;;;;;23.95;16.10;;;;;;;26.19;40.34;102033.47;5073864;28;20039;-84
2022/05/20 06:55:04;;;;;;;22.83;13.88;;;;;;;25.33;39.88;102028.72;5073832;28;20028;-82
2022/05/20 06:57:30;;;;;;;21.77;13.23;;;;;;;24.07;42.14;102027.72;5055525;28;20028;-83
2022/05/20 06:59:55;;;;;;;23.33;14.70;;;;;;;22.55;43.49;101896.09;5073770;28;20020;-82
2022/05/20 07:02:21;;;;;;;23.73;14.73;;;;;;;23.44;43.66;101938.25;5073621;28;20488;-83
2022/05/20 07:04:46;;;;;;;22.92;14.85;;;;;;;24.85;42.97;102009.09;5073732;28;20028;-82
2022/05/20 07:07:15;;;;;;;20.88;15.82;;;;;;;25.54;41.40;101999.94;5073586;28;20020;-82
2022/05/20 07:09:40;;;;;;;21.60;14.48;;;;;;;26.30;39.47;102002.13;5055708;28;20023;-81
2022/05/20 07:12:12;;;;;;;19.13;13.30;;;;;;;25.63;39.55;101971.66;5073157;28;20386;-85
2022/05/20 07:14:37;;;;;;;19.58;12.88;;;;;;;24.86;39.69;101960.56;5073416;28;20021;-87
2022/05/20 07:17:03;;;;;;;20.45;13.38;;;;;;;24.91;41.56;102005.81;5073120;28;20039;-82
2022/05/20 07:19:29;;;;;;;18.73;12.55;;;;;;;24.70;42.23;101995.72;5073341;28;20024;-82
2022/05/20 07:21:54;;;;;;;22.10;14.25;;;;;;;24.12;41.24;101987.69;5072584;28;20469;-85
2022/05/20 07:24:19;;;;;;;19.17;13.90;;;;;;;22.95;44.60;101976.53;5073360;28;20036;-86
2022/05/20 07:26:47;;;;;;;20.73;14.15;;;;;;;22.15;45.47;101963.09;5055131;28;20024;-86
2022/05/20 07:29:15;;;;;;;19.95;13.68;;;;;;;21.70;48.25;101949.75;5055339;28;20035;-83
2022/05/20 07:31:51;;;;;;;20.75;14.55;;;;;;;21.50;49.95;101991.00;5071334;28;20093;-82
2022/05/20 07:34:16;;;;;;;24.70;15.88;;;;;;;21.28;50.66;101986.03;5073390;28;20036;-81
2022/05/20 07:36:42;;;;;;;23.23;15.13;;;;;;;20.71;52.42;101911.47;5072957;28;20041;-80
2022/05/20 07:39:08;;;;;;;22.25;15.13;;;;;;;21.03;51.90;101961.09;5073058;28;20385;-83
2022/05/20 07:41:35;;;;;;;22.08;15.95;;;;;;;20.30;52.93;101885.25;5072867;28;20056;-83
2022/05/20 07:44:43;;;;;;;21.60;15.15;;;;;;;20.01;52.86;101877.28;5054313;28;20039;-81
2022/05/20 07:47:08;;;;;;;23.98;16.23;;;;;;;20.18;55.69;101898.59;5072193;28;20481;-85
2022/05/20 07:49:33;;;;;;;20.02;15.52;;;;;;;20.23;53.45;101847.38;5073044;28;20531;-81
2022/05/20 07:52:02;;;;;;;20.20;14.82;;;;;;;21.09;51.18;101963.19;5072751;28;20103;-80
2022/05/20 07:54:32;;;;;;;20.05;14.25;;;;;;;20.72;51.31;101895.56;5072705;28;20028;-85
2022/05/20 07:57:03;;;;;;;19.25;13.82;;;;;;;20.95;50.30;101960.97;5072795;28;20115;-81
2022/05/20 07:59:32;;;;;;;19.55;14.00;;;;;;;20.74;51.57;101948.75;5072916;28;20027;-87
2022/05/20 08:02:00;;;;;;;19.58;14.27;;;;;;;20.53;51.98;101903.41;5055009;28;20498;-86
2022/05/20 08:04:53;;;;;;;21.05;15.45;;;;;;;20.97;51.67;101956.41;5072716;28;20354;-86
2022/05/20 08:07:20;;;;;;;21.33;14.52;;;;;;;20.97;52.23;101954.63;5055168;28;20040;-87
2022/05/20 08:09:47;;;;;;;19.98;14.02;;;;;;;20.91;51.71;101900.00;5072698;28;20047;-86
2022/05/20 08:12:13;;;;;;;19.23;13.27;;;;;;;21.25;50.33;101942.47;5072264;28;20041;-86
2022/05/20 08:14:38;;;;;;;19.25;13.25;;;;;;;21.30;51.36;101924.50;5072666;28;20504;-86
2022/05/20 08:17:04;;;;;;;20.70;13.48;;;;;;;20.98;50.36;101855.66;5072578;28;20036;-86
2022/05/20 08:19:31;;;;;;;21.00;13.73;;;;;;;21.25;51.95;101882.03;5054633;28;20469;-86
2022/05/20 08:21:56;;;;;;;22.05;14.43;;;;;;;21.40;49.71;101893.78;5072798;28;20366;-82
2022/05/20 08:24:22;;;;;;;22.48;14.40;;;;;;;21.78;51.54;101920.94;5073088;28;20024;-90
2022/05/20 08:26:47;;;;;;;19.83;15.40;;;;;;;21.93;50.83;101906.38;5055124;28;20049;-89
2022/05/20 08:29:13;;;;;;;18.20;14.13;;;;;;;21.10;50.32;101766.06;5072370;28;20027;-89
2022/05/20 08:31:40;;;;;;;22.30;15.50;;;;;;;21.69;51.96;101901.59;5072715;28;20036;-87
2022/05/20 08:34:25;;;;;;;19.50;15.48;;;;;;;20.53;50.43;101720.56;5076544;28;20025;-85
2022/05/20 08:37:00;;;;;;;18.58;15.05;;;;;;;20.50;50.74;101754.13;5077281;28;20048;-90
2022/05/20 08:39:35;;;;;;;21.40;14.80;;;;;;;21.14;51.79;101861.19;5077285;28;20103;-90
2022/05/20 08:42:21;;;;;;;20.65;14.70;;;;;;;21.60;51.48;101915.59;5077403;28;20090;-90
2022/05/20 08:45:04;;;;;;;20.45;14.63;;;;;;;20.72;50.85;101761.69;5076143;28;20036;-89
2022/05/20 08:47:49;;;;;;;20.67;14.55;;;;;;;21.61;51.26;101892.75;5076416;28;20035;-87
2022/05/20 08:50:36;;;;;;;20.52;15.13;;;;;;;21.53;50.86;101876.88;5076316;28;20029;-86
2022/05/20 08:53:01;;;;;;;21.88;15.13;;;;;;;20.81;51.47;101760.84;5076121;28;20051;-85
2022/05/20 08:55:33;;;;;;;19.33;14.75;;;;;;;21.27;51.13;101811.81;5075974;28;20469;-84
2022/05/20 08:58:36;;;;;;;20.20;14.50;;;;;;;21.18;52.46;101763.53;5076186;28;20032;-86
2022/05/20 09:01:02;;;;;;;20.95;14.85;;;;;;;20.60;51.58;101663.09;5076039;28;20025;-86
2022/05/20 09:04:24;;;;;;;19.42;13.82;;;;;;;20.39;51.00;101633.56;5075850;28;20077;-87
2022/05/20 09:07:11;;;;;;;18.13;14.13;;;;;;;21.11;51.97;101780.84;5076007;28;20044;-82
2022/05/20 09:10:06;;;;;;;18.98;14.93;;;;;;;20.51;51.21;101677.06;5075831;28;20024;-86
2022/05/20 09:13:03;;;;;;;20.23;15.05;;;;;;;20.88;51.88;101738.34;5076064;28;20070;-86
2022/05/20 09:15:43;;;;;;;23.38;15.40;;;;;;;21.33;52.64;101805.97;5075727;28;20028;-87
2022/05/20 09:18:16;;;;;;;19.23;14.60;;;;;;;21.62;52.81;101797.97;5057575;28;20028;-80
2022/05/20 09:20:52;;;;;;;22.35;15.02;;;;;;;21.59;51.33;101793.03;5075874;28;20024;-88
2022/05/20 09:23:22;;;;;;;20.13;15.95;;;;;;;21.73;51.29;101807.50;5075887;28;20020;-88
2022/05/20 09:26:00;;;;;;;18.10;14.13;;;;;;;21.96;52.68;101771.13;5057824;28;20078;-87
2022/05/20 09:28:50;;;;;;;18.20;14.27;;;;;;;22.21;51.60;101824.84;5075483;28;20020;-82
2022/05/20 09:31:28;;;;;;;25.45;12.95;;;;;;;22.32;50.13;101816.75;5075544;28;20025;-86
2022/05/20 09:34:11;;;;;;;18.58;13.00;;;;;;;22.12;51.15;101767.84;5075593;28;20032;-83
2022/05/20 09:36:44;;;;;;;18.58;12.23;;;;;;;22.37;52.48;101788.16;5075302;28;20028;-82
2022/05/20 09:39:25;;;;;;;19.60;12.38;;;;;;;22.46;52.75;101776.75;5075306;28;20021;-82
2022/05/20 09:41:53;;;;;;;15.02;12.20;;;;;;;22.15;50.15;101734.19;5075576;28;20032;-87
2022/05/20 09:44:23;;;;;;;19.05;12.40;;;;;;;22.17;50.96;101742.75;5074553;28;20029;-85
2022/05/20 09:46:59;;;;;;;18.40;11.63;;;;;;;22.42;51.22;101787.72;5075426;28;20108;-83
2022/05/20 09:49:30;;;;;;;17.80;11.52;;;;;;;22.41;49.56;101783.41;5075118;28;20031;-80
2022/05/20 09:52:00;;;;;;;17.25;11.20;;;;;;;22.21;50.13;101761.69;5074972;28;20078;-82
2022/05/20 09:54:40;;;;;;;15.70;11.02;;;;;;;22.30;52.12;101758.97;5075202;28;20021;-82
2022/05/20 09:57:35;;;;;;;16.08;11.05;;;;;;;22.47;50.59;101751.25;5074949;28;20477;-82
2022/05/20 10:00:15;;;;;;;16.27;10.90;;;;;;;22.60;50.55;101731.44;4993411;28;20034;-86
2022/05/20 10:02:54;;;;;;;16.73;10.88;;;;;;;22.52;49.75;101677.94;4993509;28;20041;-82
2022/05/20 10:05:34;;;;;;;17.13;10.68;;;;;;;22.88;49.32;101713.72;4993672;28;20096;-82
2022/05/20 10:08:10;;;;;;;13.88;10.13;;;;;;;22.82;50.85;101684.53;4993424;28;20034;-86
2022/05/20 10:10:35;;;;;;;14.52;9.55;;;;;;;23.00;50.47;101708.19;4993104;28;20177;-85
2022/05/20 10:13:04;;;;;;;16.30;10.13;;;;;;;22.61;48.34;101646.25;5009667;28;20530;-83
2022/05/20 10:15:46;;;;;;;14.43;10.55;;;;;;;22.74;48.58;101682.69;4992932;28;20026;-82
2022/05/20 10:18:50;;;;;;;23.58;9.52;;;;;;;22.38;50.87;101633.72;5009244;28;20046;-82
2022/05/20 10:21:23;;;;;;;15.95;10.45;;;;;;;22.43;51.19;101666.50;4993063;28;20037;-83
2022/05/20 10:23:55;;;;;;;16.27;11.10;;;;;;;22.21;51.17;101656.44;4993251;28;20170;-86
2022/05/20 10:26:36;;;;;;;15.73;10.82;;;;;;;22.48;51.91;101655.50;4993189;28;20038;-80
2022/05/20 10:32:35;;;;;;;16.17;10.90;;;;;;;22.65;51.43;101609.88;4993279;28;20172;-84
2022/05/20 10:35:03;;;;;;;16.48;11.93;;;;;;;22.57;50.61;101592.22;4976751;28;20034;-83
2022/05/20 10:37:38;;;;;;;18.52;12.07;;;;;;;22.72;50.86;101578.50;5069596;28;20040;-87
2022/05/20 10:40:06;;;;;;;16.90;12.13;;;;;;;23.08;49.63;101611.56;5074756;28;20032;-86
2022/05/20 10:42:44;;;;;;;16.70;11.93;;;;;;;23.13;51.87;101606.66;5074164;28;20110;-83
2022/05/20 10:48:34;;;;;;;17.98;12.35;;;;;;;23.01;50.00;101586.03;5073981;28;20542;-86
2022/05/20 10:51:28;;;;;;;16.20;12.70;;;;;;;23.14;51.46;101579.34;5056916;28;20025;-84
2022/05/20 10:53:59;;;;;;;19.55;14.07;;;;;;;23.09;51.43;101559.72;5056598;28;20029;-86
2022/05/20 10:56:59;;;;;;;18.92;13.52;;;;;;;22.81;51.00;101509.06;5072935;28;20024;-84
2022/05/20 10:59:42;;;;;;;20.27;15.02;;;;;;;22.61;51.97;101493.53;5073954;28;20060;-87
2022/05/20 11:02:13;;;;;;;18.00;14.30;;;;;;;22.78;53.07;101517.28;5055916;28;20469;-89
2022/05/20 11:05:01;;;;;;;19.55;15.25;;;;;;;22.92;52.15;101497.44;5074737;28;20078;-89
2022/05/20 11:08:03;;;;;;;19.77;14.90;;;;;;;23.29;52.36;101481.19;5074379;28;20056;-88
2022/05/20 11:10:53;;;;;;;20.15;14.73;;;;;;;23.52;51.99;101461.13;5075182;28;20052;-87
2022/05/20 11:13:52;;;;;;;20.50;14.82;;;;;;;23.63;52.01;101457.34;5073817;28;20025;-87
2022/05/20 11:16:45;;;;;;;18.83;14.88;;;;;;;23.82;51.28;101453.53;5073539;28;20040;-88
2022/05/20 11:19:38;;;;;;;20.98;15.20;;;;;;;23.70;51.25;101455.69;5075527;28;20099;-87
2022/05/20 11:22:20;;;;;;;18.50;15.05;;;;;;;22.66;52.21;101292.16;5074244;28;20465;-88
2022/05/20 11:25:32;;;;;;;22.67;15.55;;;;;;;23.35;51.61;101388.31;5073695;28;20070;-80
2022/05/20 11:28:10;;;;;;;21.83;16.05;;;;;;;22.80;52.27;101313.38;5073704;28;20466;-86
2022/05/20 11:30:54;;;;;;;23.73;17.77;;;;;;;23.65;51.71;101445.63;5074391;28;20120;-88
2022/05/20 11:33:27;;;;;;;24.73;19.27;;;;;;;23.59;51.64;101425.19;5073149;28;20036;-85
2022/05/20 11:36:01;;;;;;;26.35;20.48;;;;;;;23.50;51.93;101420.91;5055429;28;20024;-84
2022/05/20 11:38:33;;;;;;;22.88;20.38;;;;;;;23.27;52.78;101380.41;5073113;28;20037;-87
2022/05/20 11:41:38;;;;;;;24.58;21.50;;;;;;;23.29;52.81;101375.78;5072974;28;20037;-88
2022/05/20 11:44:12;;;;;;;28.52;22.80;;;;;;;22.96;53.88;101360.00;4991556;28;20061;-87
2022/05/20 11:47:08;;;;;;;27.92;24.85;;;;;;;22.90;54.45;101406.22;4975349;28;20058;-88
2022/05/20 11:49:55;;;;;;;30.83;25.85;;;;;;;22.57;55.94;101412.41;4992054;28;20065;-88
2022/05/20 11:52:58;;;;;;;32.88;26.35;;;;;;;22.33;56.38;101407.91;4992019;28;20125;-86
2022/05/20 11:55:52;;;;;;;32.60;27.00;;;;;;;21.98;58.02;101387.81;4933536;28;20106;-88
2022/05/20 11:58:29;;;;;;;36.75;28.27;;;;;;;21.57;58.66;101356.06;4933412;29;20043;-87
2022/05/20 12:00:55;;;;;;;36.22;28.88;;;;;;;20.31;60.06;101204.91;4932467;29;20171;-86
2022/05/20 12:06:27;;;;;;;32.22;26.83;;;;;;;20.50;62.03;101294.97;4934030;29;20053;-84
2022/05/20 12:08:58;;;;;;;34.15;28.58;;;;;;;20.09;62.14;101231.59;4917295;29;20038;-87